sensor_id;sensor_type;location;lat;lon;timestamp;temperature;humidity
19090;DHT22;9677;50.656;13.064;2022-08-30T00:00:23;18.30;52.50
19090;DHT22;9677;50.656;13.064;2022-08-30T00:03:11;18.30;52.50
19090;DHT22;9677;50.656;13.064;2022-08-30T00:05:42;18.20;52.60
19090;DHT22;9677;50.656;13.064;2022-08-30T00:08:12;18.20;52.60
19090;DHT22;9677;50.656;13.064;2022-08-30T00:10:42;18.20;52.70
19090;DHT22;9677;50.656;13.064;2022-08-30T00:13:11;18.20;52.70
19090;DHT22;9677;50.656;13.064;2022-08-30T00:15:42;18.10;52.70
19090;DHT22;9677;50.656;13.064;2022-08-30T00:18:10;18.10;52.80
19090;DHT22;9677;50.656;13.064;2022-08-30T00:20:39;18.10;52.80
19090;DHT22;9677;50.656;13.064;2022-08-30T00:23:07;18.00;52.80
19090;DHT22;9677;50.656;13.064;2022-08-30T00:25:37;18.00;52.90
19090;DHT22;9677;50.656;13.064;2022-08-30T00:28:06;18.00;53.00
19090;DHT22;9677;50.656;13.064;2022-08-30T00:30:36;18.00;53.00
19090;DHT22;9677;50.656;13.064;2022-08-30T00:33:04;18.00;53.00
19090;DHT22;9677;50.656;13.064;2022-08-30T00:35:33;18.00;53.00
19090;DHT22;9677;50.656;13.064;2022-08-30T00:38:02;18.00;53.60
19090;DHT22;9677;50.656;13.064;2022-08-30T00:40:30;18.00;53.00
19090;DHT22;9677;50.656;13.064;2022-08-30T00:43:01;17.90;53.00
19090;DHT22;9677;50.656;13.064;2022-08-30T00:45:34;18.00;53.10
19090;DHT22;9677;50.656;13.064;2022-08-30T00:48:04;18.00;53.10
19090;DHT22;9677;50.656;13.064;2022-08-30T00:50:39;17.90;53.10
19090;DHT22;9677;50.656;13.064;2022-08-30T00:53:11;17.90;53.10
19090;DHT22;9677;50.656;13.064;2022-08-30T00:55:42;17.90;53.10
19090;DHT22;9677;50.656;13.064;2022-08-30T00:58:16;17.80;53.10
19090;DHT22;9677;50.656;13.064;2022-08-30T01:00:49;17.80;53.10
19090;DHT22;9677;50.656;13.064;2022-08-30T01:03:19;17.80;53.60
19090;DHT22;9677;50.656;13.064;2022-08-30T01:05:49;17.70;53.00
19090;DHT22;9677;50.656;13.064;2022-08-30T01:08:18;17.70;53.00
19090;DHT22;9677;50.656;13.064;2022-08-30T01:10:49;17.70;53.10
19090;DHT22;9677;50.656;13.064;2022-08-30T01:13:20;17.70;53.20
19090;DHT22;9677;50.656;13.064;2022-08-30T01:15:49;17.60;53.20
19090;DHT22;9677;50.656;13.064;2022-08-30T01:18:20;17.60;53.30
19090;DHT22;9677;50.656;13.064;2022-08-30T01:20:53;17.60;53.30
19090;DHT22;9677;50.656;13.064;2022-08-30T01:23:31;17.50;53.40
19090;DHT22;9677;50.656;13.064;2022-08-30T01:26:02;17.50;53.40
19090;DHT22;9677;50.656;13.064;2022-08-30T01:28:33;17.50;53.50
19090;DHT22;9677;50.656;13.064;2022-08-30T01:31:01;17.50;53.50
19090;DHT22;9677;50.656;13.064;2022-08-30T01:33:30;17.50;53.50
19090;DHT22;9677;50.656;13.064;2022-08-30T01:36:02;17.50;53.50
19090;DHT22;9677;50.656;13.064;2022-08-30T01:38:36;17.40;53.50
19090;DHT22;9677;50.656;13.064;2022-08-30T01:41:09;17.60;53.70
19090;DHT22;9677;50.656;13.064;2022-08-30T01:43:40;17.40;53.50
19090;DHT22;9677;50.656;13.064;2022-08-30T01:46:08;17.40;53.60
19090;DHT22;9677;50.656;13.064;2022-08-30T01:48:38;17.60;53.70
19090;DHT22;9677;50.656;13.064;2022-08-30T01:51:16;17.40;53.60
19090;DHT22;9677;50.656;13.064;2022-08-30T01:53:46;17.40;54.20
19090;DHT22;9677;50.656;13.064;2022-08-30T01:56:14;17.30;53.70
19090;DHT22;9677;50.656;13.064;2022-08-30T01:58:43;17.30;53.70
19090;DHT22;9677;50.656;13.064;2022-08-30T02:01:14;17.30;53.70
19090;DHT22;9677;50.656;13.064;2022-08-30T02:03:44;17.30;53.60
19090;DHT22;9677;50.656;13.064;2022-08-30T02:06:15;17.30;53.60
19090;DHT22;9677;50.656;13.064;2022-08-30T02:08:46;17.30;54.20
19090;DHT22;9677;50.656;13.064;2022-08-30T02:11:16;17.30;53.70
19090;DHT22;9677;50.656;13.064;2022-08-30T02:13:45;17.20;53.70
19090;DHT22;9677;50.656;13.064;2022-08-30T02:16:16;17.20;53.70
19090;DHT22;9677;50.656;13.064;2022-08-30T02:18:49;17.20;53.70
19090;DHT22;9677;50.656;13.064;2022-08-30T02:21:19;17.20;53.70
19090;DHT22;9677;50.656;13.064;2022-08-30T02:23:49;17.20;53.70
19090;DHT22;9677;50.656;13.064;2022-08-30T02:26:18;17.10;53.70
19090;DHT22;9677;50.656;13.064;2022-08-30T02:28:47;17.10;53.70
19090;DHT22;9677;50.656;13.064;2022-08-30T02:31:16;17.10;53.70
19090;DHT22;9677;50.656;13.064;2022-08-30T02:33:48;17.10;53.70
19090;DHT22;9677;50.656;13.064;2022-08-30T02:36:18;17.10;54.30
19090;DHT22;9677;50.656;13.064;2022-08-30T02:38:50;17.10;53.80
19090;DHT22;9677;50.656;13.064;2022-08-30T02:41:19;17.20;53.90
19090;DHT22;9677;50.656;13.064;2022-08-30T02:43:50;17.00;53.80
19090;DHT22;9677;50.656;13.064;2022-08-30T02:46:24;17.00;53.90
19090;DHT22;9677;50.656;13.064;2022-08-30T02:48:59;17.00;53.90
19090;DHT22;9677;50.656;13.064;2022-08-30T02:51:47;17.20;54.00
19090;DHT22;9677;50.656;13.064;2022-08-30T02:54:17;16.90;53.90
19090;DHT22;9677;50.656;13.064;2022-08-30T02:56:46;16.90;53.90
19090;DHT22;9677;50.656;13.064;2022-08-30T02:59:17;16.90;53.90
19090;DHT22;9677;50.656;13.064;2022-08-30T03:01:45;16.90;53.90
19090;DHT22;9677;50.656;13.064;2022-08-30T03:04:14;16.90;53.90
19090;DHT22;9677;50.656;13.064;2022-08-30T03:06:43;16.80;53.90
19090;DHT22;9677;50.656;13.064;2022-08-30T03:09:11;16.80;53.90
19090;DHT22;9677;50.656;13.064;2022-08-30T03:11:41;16.80;53.90
19090;DHT22;9677;50.656;13.064;2022-08-30T03:14:10;16.80;54.00
19090;DHT22;9677;50.656;13.064;2022-08-30T03:16:39;16.80;54.00
19090;DHT22;9677;50.656;13.064;2022-08-30T03:19:07;16.80;54.00
19090;DHT22;9677;50.656;13.064;2022-08-30T03:21:36;16.70;54.00
19090;DHT22;9677;50.656;13.064;2022-08-30T03:24:05;16.70;54.00
19090;DHT22;9677;50.656;13.064;2022-08-30T03:26:34;16.70;54.00
19090;DHT22;9677;50.656;13.064;2022-08-30T03:29:04;16.60;54.00
19090;DHT22;9677;50.656;13.064;2022-08-30T03:31:32;16.60;54.00
19090;DHT22;9677;50.656;13.064;2022-08-30T03:34:19;16.70;54.10
19090;DHT22;9677;50.656;13.064;2022-08-30T03:36:48;16.70;54.10
19090;DHT22;9677;50.656;13.064;2022-08-30T03:39:17;16.50;54.10
19090;DHT22;9677;50.656;13.064;2022-08-30T03:41:45;16.50;54.10
19090;DHT22;9677;50.656;13.064;2022-08-30T03:44:15;16.50;54.20
19090;DHT22;9677;50.656;13.064;2022-08-30T03:46:44;16.50;54.20
19090;DHT22;9677;50.656;13.064;2022-08-30T03:49:12;16.40;54.20
19090;DHT22;9677;50.656;13.064;2022-08-30T03:51:41;16.40;54.30
19090;DHT22;9677;50.656;13.064;2022-08-30T03:54:10;16.40;54.30
19090;DHT22;9677;50.656;13.064;2022-08-30T03:56:39;16.30;54.30
19090;DHT22;9677;50.656;13.064;2022-08-30T03:59:08;16.30;54.30
19090;DHT22;9677;50.656;13.064;2022-08-30T04:01:37;16.30;54.30
19090;DHT22;9677;50.656;13.064;2022-08-30T04:04:08;16.30;54.30
19090;DHT22;9677;50.656;13.064;2022-08-30T04:06:36;16.30;54.30
19090;DHT22;9677;50.656;13.064;2022-08-30T04:09:05;16.30;54.40
19090;DHT22;9677;50.656;13.064;2022-08-30T04:11:34;16.30;54.50
19090;DHT22;9677;50.656;13.064;2022-08-30T04:14:02;16.20;54.40
19090;DHT22;9677;50.656;13.064;2022-08-30T04:16:31;16.20;54.50
19090;DHT22;9677;50.656;13.064;2022-08-30T04:19:00;16.30;54.50
19090;DHT22;9677;50.656;13.064;2022-08-30T04:21:29;16.20;54.60
19090;DHT22;9677;50.656;13.064;2022-08-30T04:24:01;16.20;54.60
19090;DHT22;9677;50.656;13.064;2022-08-30T04:26:29;16.10;54.60
19090;DHT22;9677;50.656;13.064;2022-08-30T04:28:58;16.20;54.70
19090;DHT22;9677;50.656;13.064;2022-08-30T04:31:26;16.10;54.60
19090;DHT22;9677;50.656;13.064;2022-08-30T04:33:54;16.10;54.70
19090;DHT22;9677;50.656;13.064;2022-08-30T04:36:24;16.10;54.70
19090;DHT22;9677;50.656;13.064;2022-08-30T04:38:52;16.10;55.30
19090;DHT22;9677;50.656;13.064;2022-08-30T04:41:21;16.10;54.70
19090;DHT22;9677;50.656;13.064;2022-08-30T04:43:50;16.10;54.80
19090;DHT22;9677;50.656;13.064;2022-08-30T04:46:18;16.10;54.80
19090;DHT22;9677;50.656;13.064;2022-08-30T04:48:48;16.10;54.80
19090;DHT22;9677;50.656;13.064;2022-08-30T04:51:17;16.00;54.70
19090;DHT22;9677;50.656;13.064;2022-08-30T04:53:47;16.00;54.80
19090;DHT22;9677;50.656;13.064;2022-08-30T04:56:16;16.00;54.90
19090;DHT22;9677;50.656;13.064;2022-08-30T04:58:51;16.00;55.00
19090;DHT22;9677;50.656;13.064;2022-08-30T05:01:23;16.00;55.10
19090;DHT22;9677;50.656;13.064;2022-08-30T05:03:53;16.00;55.20
19090;DHT22;9677;50.656;13.064;2022-08-30T05:06:24;16.00;55.30
19090;DHT22;9677;50.656;13.064;2022-08-30T05:08:54;16.00;55.30
19090;DHT22;9677;50.656;13.064;2022-08-30T05:11:23;16.00;55.40
19090;DHT22;9677;50.656;13.064;2022-08-30T05:13:51;16.00;55.30
19090;DHT22;9677;50.656;13.064;2022-08-30T05:16:20;16.00;55.40
19090;DHT22;9677;50.656;13.064;2022-08-30T05:18:49;16.00;55.50
19090;DHT22;9677;50.656;13.064;2022-08-30T05:21:20;16.00;55.60
19090;DHT22;9677;50.656;13.064;2022-08-30T05:23:51;16.00;55.60
19090;DHT22;9677;50.656;13.064;2022-08-30T05:26:25;16.00;55.60
19090;DHT22;9677;50.656;13.064;2022-08-30T05:28:55;16.00;55.70
19090;DHT22;9677;50.656;13.064;2022-08-30T05:31:27;16.10;55.70
19090;DHT22;9677;50.656;13.064;2022-08-30T05:33:56;16.10;55.80
19090;DHT22;9677;50.656;13.064;2022-08-30T05:36:28;16.10;55.80
19090;DHT22;9677;50.656;13.064;2022-08-30T05:38:59;16.10;55.90
19090;DHT22;9677;50.656;13.064;2022-08-30T05:41:31;16.10;55.90
19090;DHT22;9677;50.656;13.064;2022-08-30T05:44:05;16.20;56.00
19090;DHT22;9677;50.656;13.064;2022-08-30T05:46:35;16.20;56.00
19090;DHT22;9677;50.656;13.064;2022-08-30T05:49:06;16.20;56.10
19090;DHT22;9677;50.656;13.064;2022-08-30T05:51:36;16.30;56.30
19090;DHT22;9677;50.656;13.064;2022-08-30T05:54:12;16.30;56.20
19090;DHT22;9677;50.656;13.064;2022-08-30T05:56:43;16.30;56.20
19090;DHT22;9677;50.656;13.064;2022-08-30T05:59:13;16.40;56.20
19090;DHT22;9677;50.656;13.064;2022-08-30T06:01:44;16.50;56.20
19090;DHT22;9677;50.656;13.064;2022-08-30T06:04:14;16.50;56.20
19090;DHT22;9677;50.656;13.064;2022-08-30T06:06:43;16.50;56.10
19090;DHT22;9677;50.656;13.064;2022-08-30T06:09:13;16.50;56.10
19090;DHT22;9677;50.656;13.064;2022-08-30T06:11:43;16.60;56.10
19090;DHT22;9677;50.656;13.064;2022-08-30T06:14:12;16.60;56.10
19090;DHT22;9677;50.656;13.064;2022-08-30T06:16:41;16.60;56.10
19090;DHT22;9677;50.656;13.064;2022-08-30T06:19:13;16.80;56.20
19090;DHT22;9677;50.656;13.064;2022-08-30T06:21:42;16.70;56.10
19090;DHT22;9677;50.656;13.064;2022-08-30T06:24:13;16.70;56.10
19090;DHT22;9677;50.656;13.064;2022-08-30T06:26:44;16.70;56.10
19090;DHT22;9677;50.656;13.064;2022-08-30T06:29:17;17.00;56.20
19090;DHT22;9677;50.656;13.064;2022-08-30T06:31:47;16.90;56.20
19090;DHT22;9677;50.656;13.064;2022-08-30T06:34:16;16.80;56.10
19090;DHT22;9677;50.656;13.064;2022-08-30T06:36:44;16.80;56.10
19090;DHT22;9677;50.656;13.064;2022-08-30T06:39:14;16.90;56.10
19090;DHT22;9677;50.656;13.064;2022-08-30T06:41:42;16.90;56.20
19090;DHT22;9677;50.656;13.064;2022-08-30T06:44:23;16.90;56.20
19090;DHT22;9677;50.656;13.064;2022-08-30T06:46:51;16.90;56.20
19090;DHT22;9677;50.656;13.064;2022-08-30T06:49:19;16.90;56.20
19090;DHT22;9677;50.656;13.064;2022-08-30T06:51:48;16.90;56.30
19090;DHT22;9677;50.656;13.064;2022-08-30T06:54:18;17.00;56.40
19090;DHT22;9677;50.656;13.064;2022-08-30T06:56:47;17.00;56.50
19090;DHT22;9677;50.656;13.064;2022-08-30T06:59:25;17.00;56.60
19090;DHT22;9677;50.656;13.064;2022-08-30T07:01:53;17.00;56.60
19090;DHT22;9677;50.656;13.064;2022-08-30T07:04:22;17.10;56.80
19090;DHT22;9677;50.656;13.064;2022-08-30T07:06:51;17.10;56.90
19090;DHT22;9677;50.656;13.064;2022-08-30T07:09:21;17.20;57.00
19090;DHT22;9677;50.656;13.064;2022-08-30T07:11:50;17.30;57.30
19090;DHT22;9677;50.656;13.064;2022-08-30T07:14:20;17.30;57.30
19090;DHT22;9677;50.656;13.064;2022-08-30T07:16:49;17.40;57.40
19090;DHT22;9677;50.656;13.064;2022-08-30T07:19:18;17.50;57.40
19090;DHT22;9677;50.656;13.064;2022-08-30T07:21:47;17.70;57.50
19090;DHT22;9677;50.656;13.064;2022-08-30T07:24:18;17.70;57.50
19090;DHT22;9677;50.656;13.064;2022-08-30T07:26:49;17.70;57.50
19090;DHT22;9677;50.656;13.064;2022-08-30T07:29:18;17.90;57.70
19090;DHT22;9677;50.656;13.064;2022-08-30T07:31:47;18.00;57.60
19090;DHT22;9677;50.656;13.064;2022-08-30T07:34:15;18.10;57.50
19090;DHT22;9677;50.656;13.064;2022-08-30T07:36:48;18.20;57.60
19090;DHT22;9677;50.656;13.064;2022-08-30T07:39:17;18.40;57.70
19090;DHT22;9677;50.656;13.064;2022-08-30T07:41:46;18.40;57.60
19090;DHT22;9677;50.656;13.064;2022-08-30T07:44:16;18.50;57.70
19090;DHT22;9677;50.656;13.064;2022-08-30T07:46:49;18.70;57.70
19090;DHT22;9677;50.656;13.064;2022-08-30T07:49:17;18.70;57.50
19090;DHT22;9677;50.656;13.064;2022-08-30T07:51:46;18.80;57.50
19090;DHT22;9677;50.656;13.064;2022-08-30T07:54:14;18.90;57.50
19090;DHT22;9677;50.656;13.064;2022-08-30T07:56:43;19.00;57.50
19090;DHT22;9677;50.656;13.064;2022-08-30T07:59:13;19.10;57.40
19090;DHT22;9677;50.656;13.064;2022-08-30T08:01:41;19.20;57.40
19090;DHT22;9677;50.656;13.064;2022-08-30T08:04:09;19.30;57.30
19090;DHT22;9677;50.656;13.064;2022-08-30T08:06:38;19.40;57.30
19090;DHT22;9677;50.656;13.064;2022-08-30T08:09:07;19.40;57.20
19090;DHT22;9677;50.656;13.064;2022-08-30T08:11:36;19.50;57.10
19090;DHT22;9677;50.656;13.064;2022-08-30T08:14:06;19.60;57.10
19090;DHT22;9677;50.656;13.064;2022-08-30T08:16:36;19.60;57.70
19090;DHT22;9677;50.656;13.064;2022-08-30T08:19:05;19.70;57.10
19090;DHT22;9677;50.656;13.064;2022-08-30T08:21:35;19.80;57.00
19090;DHT22;9677;50.656;13.064;2022-08-30T08:24:04;19.80;56.90
19090;DHT22;9677;50.656;13.064;2022-08-30T08:26:34;19.90;57.00
19090;DHT22;9677;50.656;13.064;2022-08-30T08:29:04;20.00;56.90
19090;DHT22;9677;50.656;13.064;2022-08-30T08:31:35;20.10;56.80
19090;DHT22;9677;50.656;13.064;2022-08-30T08:34:04;20.10;56.80
19090;DHT22;9677;50.656;13.064;2022-08-30T08:36:33;20.20;56.80
19090;DHT22;9677;50.656;13.064;2022-08-30T08:39:04;20.40;56.80
19090;DHT22;9677;50.656;13.064;2022-08-30T08:41:44;20.50;56.80
19090;DHT22;9677;50.656;13.064;2022-08-30T08:44:28;20.50;56.80
19090;DHT22;9677;50.656;13.064;2022-08-30T08:47:11;20.50;56.70
19090;DHT22;9677;50.656;13.064;2022-08-30T08:49:45;20.60;56.70
19090;DHT22;9677;50.656;13.064;2022-08-30T08:52:20;20.70;56.60
19090;DHT22;9677;50.656;13.064;2022-08-30T08:55:12;20.70;56.60
19090;DHT22;9677;50.656;13.064;2022-08-30T08:57:42;20.80;56.40
19090;DHT22;9677;50.656;13.064;2022-08-30T09:00:31;21.00;56.30
19090;DHT22;9677;50.656;13.064;2022-08-30T09:03:02;21.10;56.10
19090;DHT22;9677;50.656;13.064;2022-08-30T09:05:37;21.10;56.00
19090;DHT22;9677;50.656;13.064;2022-08-30T09:08:10;21.20;55.90
19090;DHT22;9677;50.656;13.064;2022-08-30T09:10:45;21.50;55.90
19090;DHT22;9677;50.656;13.064;2022-08-30T09:13:18;21.40;55.60
19090;DHT22;9677;50.656;13.064;2022-08-30T09:15:49;21.50;55.50
19090;DHT22;9677;50.656;13.064;2022-08-30T09:18:40;21.50;55.40
19090;DHT22;9677;50.656;13.064;2022-08-30T09:21:12;21.80;55.00
19090;DHT22;9677;50.656;13.064;2022-08-30T09:23:49;21.70;55.20
19090;DHT22;9677;50.656;13.064;2022-08-30T09:26:28;22.00;55.10
19090;DHT22;9677;50.656;13.064;2022-08-30T09:28:57;21.90;54.90
19090;DHT22;9677;50.656;13.064;2022-08-30T09:31:29;22.10;55.10
19090;DHT22;9677;50.656;13.064;2022-08-30T09:34:01;22.20;54.90
19090;DHT22;9677;50.656;13.064;2022-08-30T09:36:38;22.30;54.70
19090;DHT22;9677;50.656;13.064;2022-08-30T09:39:16;22.40;54.70
19090;DHT22;9677;50.656;13.064;2022-08-30T09:41:48;22.50;54.30
19090;DHT22;9677;50.656;13.064;2022-08-30T09:44:18;22.60;54.30
19090;DHT22;9677;50.656;13.064;2022-08-30T09:46:50;22.70;54.30
19090;DHT22;9677;50.656;13.064;2022-08-30T09:49:34;22.80;54.20
19090;DHT22;9677;50.656;13.064;2022-08-30T09:52:12;22.80;54.10
19090;DHT22;9677;50.656;13.064;2022-08-30T09:55:08;23.10;54.00
19090;DHT22;9677;50.656;13.064;2022-08-30T09:57:53;23.10;54.00
19090;DHT22;9677;50.656;13.064;2022-08-30T10:00:28;23.20;53.80
19090;DHT22;9677;50.656;13.064;2022-08-30T10:06:14;23.40;53.60
19090;DHT22;9677;50.656;13.064;2022-08-30T10:08:55;23.50;53.40
19090;DHT22;9677;50.656;13.064;2022-08-30T10:11:35;23.60;53.60
19090;DHT22;9677;50.656;13.064;2022-08-30T10:14:32;23.80;53.60
19090;DHT22;9677;50.656;13.064;2022-08-30T10:17:14;23.80;53.40
19090;DHT22;9677;50.656;13.064;2022-08-30T10:20:02;24.00;53.30
19090;DHT22;9677;50.656;13.064;2022-08-30T10:22:41;24.10;52.80
19090;DHT22;9677;50.656;13.064;2022-08-30T10:25:15;24.30;53.00
19090;DHT22;9677;50.656;13.064;2022-08-30T10:27:50;24.30;52.60
19090;DHT22;9677;50.656;13.064;2022-08-30T10:30:21;24.40;52.20
19090;DHT22;9677;50.656;13.064;2022-08-30T10:32:54;24.60;52.60
19090;DHT22;9677;50.656;13.064;2022-08-30T10:35:29;24.80;52.70
19090;DHT22;9677;50.656;13.064;2022-08-30T10:38:10;24.80;52.60
19090;DHT22;9677;50.656;13.064;2022-08-30T10:40:46;24.90;52.00
19090;DHT22;9677;50.656;13.064;2022-08-30T10:43:45;25.30;52.40
19090;DHT22;9677;50.656;13.064;2022-08-30T10:46:26;25.30;51.30
19090;DHT22;9677;50.656;13.064;2022-08-30T10:48:59;25.50;51.60
19090;DHT22;9677;50.656;13.064;2022-08-30T10:51:31;25.60;51.90
19090;DHT22;9677;50.656;13.064;2022-08-30T10:54:11;25.80;51.80
19090;DHT22;9677;50.656;13.064;2022-08-30T10:56:48;26.00;51.30
19090;DHT22;9677;50.656;13.064;2022-08-30T10:59:19;26.10;51.10
19090;DHT22;9677;50.656;13.064;2022-08-30T11:02:06;26.30;51.00
19090;DHT22;9677;50.656;13.064;2022-08-30T11:05:11;26.40;50.20
19090;DHT22;9677;50.656;13.064;2022-08-30T11:07:58;26.50;50.00
19090;DHT22;9677;50.656;13.064;2022-08-30T11:10:54;26.60;50.00
19090;DHT22;9677;50.656;13.064;2022-08-30T11:13:30;26.70;49.70
19090;DHT22;9677;50.656;13.064;2022-08-30T11:16:01;26.80;49.90
19090;DHT22;9677;50.656;13.064;2022-08-30T11:18:41;26.80;49.70
19090;DHT22;9677;50.656;13.064;2022-08-30T11:21:23;26.90;49.60
19090;DHT22;9677;50.656;13.064;2022-08-30T11:24:00;27.00;49.40
19090;DHT22;9677;50.656;13.064;2022-08-30T11:26:55;27.10;49.90
19090;DHT22;9677;50.656;13.064;2022-08-30T11:29:35;27.20;49.30
19090;DHT22;9677;50.656;13.064;2022-08-30T11:35:40;27.60;49.30
19090;DHT22;9677;50.656;13.064;2022-08-30T11:38:19;27.80;47.80
19090;DHT22;9677;50.656;13.064;2022-08-30T11:41:31;28.00;49.10
19090;DHT22;9677;50.656;13.064;2022-08-30T11:44:24;28.20;48.70
19090;DHT22;9677;50.656;13.064;2022-08-30T11:46:56;28.30;48.30
19090;DHT22;9677;50.656;13.064;2022-08-30T11:49:45;28.30;48.40
19090;DHT22;9677;50.656;13.064;2022-08-30T11:52:33;28.40;47.50
19090;DHT22;9677;50.656;13.064;2022-08-30T11:55:39;28.40;47.50
19090;DHT22;9677;50.656;13.064;2022-08-30T11:58:24;28.50;47.40
19090;DHT22;9677;50.656;13.064;2022-08-30T12:01:19;28.60;47.60
19090;DHT22;9677;50.656;13.064;2022-08-30T12:04:26;28.70;47.40
19090;DHT22;9677;50.656;13.064;2022-08-30T12:07:05;28.80;47.20
19090;DHT22;9677;50.656;13.064;2022-08-30T12:10:02;28.90;47.40
19090;DHT22;9677;50.656;13.064;2022-08-30T12:12:58;29.00;46.70
19090;DHT22;9677;50.656;13.064;2022-08-30T12:15:53;29.10;46.60
19090;DHT22;9677;50.656;13.064;2022-08-30T12:18:36;29.20;46.50
19090;DHT22;9677;50.656;13.064;2022-08-30T12:21:25;29.30;46.60
19090;DHT22;9677;50.656;13.064;2022-08-30T12:24:02;29.30;46.40
19090;DHT22;9677;50.656;13.064;2022-08-30T12:26:35;29.40;46.60
19090;DHT22;9677;50.656;13.064;2022-08-30T12:29:14;29.50;46.70
19090;DHT22;9677;50.656;13.064;2022-08-30T12:31:47;29.50;46.00
19090;DHT22;9677;50.656;13.064;2022-08-30T12:34:23;29.60;46.10
19090;DHT22;9677;50.656;13.064;2022-08-30T12:36:57;29.60;45.90
19090;DHT22;9677;50.656;13.064;2022-08-30T12:39:33;29.70;45.90
19090;DHT22;9677;50.656;13.064;2022-08-30T12:42:16;29.70;45.90
19090;DHT22;9677;50.656;13.064;2022-08-30T12:44:47;29.80;44.40
19090;DHT22;9677;50.656;13.064;2022-08-30T12:47:20;29.80;45.40
19090;DHT22;9677;50.656;13.064;2022-08-30T12:49:53;29.80;45.10
19090;DHT22;9677;50.656;13.064;2022-08-30T12:52:29;29.90;44.70
19090;DHT22;9677;50.656;13.064;2022-08-30T12:55:08;29.90;44.70
19090;DHT22;9677;50.656;13.064;2022-08-30T12:57:56;29.90;44.80
19090;DHT22;9677;50.656;13.064;2022-08-30T13:00:29;29.80;44.50
19090;DHT22;9677;50.656;13.064;2022-08-30T13:03:01;29.90;44.90
19090;DHT22;9677;50.656;13.064;2022-08-30T13:05:52;29.80;44.70
19090;DHT22;9677;50.656;13.064;2022-08-30T13:08:30;29.80;44.70
19090;DHT22;9677;50.656;13.064;2022-08-30T13:11:05;29.90;44.70
19090;DHT22;9677;50.656;13.064;2022-08-30T13:13:39;29.80;44.40
19090;DHT22;9677;50.656;13.064;2022-08-30T13:16:21;29.80;44.50
19090;DHT22;9677;50.656;13.064;2022-08-30T13:18:53;29.70;43.80
19090;DHT22;9677;50.656;13.064;2022-08-30T13:21:27;29.70;44.40
19090;DHT22;9677;50.656;13.064;2022-08-30T13:23:58;29.60;44.30
19090;DHT22;9677;50.656;13.064;2022-08-30T13:26:30;29.60;44.50
19090;DHT22;9677;50.656;13.064;2022-08-30T13:29:02;29.50;44.40
19090;DHT22;9677;50.656;13.064;2022-08-30T13:31:36;29.50;44.50
19090;DHT22;9677;50.656;13.064;2022-08-30T13:34:04;29.40;44.70
19090;DHT22;9677;50.656;13.064;2022-08-30T13:36:38;29.40;44.80
19090;DHT22;9677;50.656;13.064;2022-08-30T13:39:15;29.30;44.40
19090;DHT22;9677;50.656;13.064;2022-08-30T13:41:47;29.30;44.70
19090;DHT22;9677;50.656;13.064;2022-08-30T13:44:17;29.20;44.70
19090;DHT22;9677;50.656;13.064;2022-08-30T13:46:47;29.20;44.60
19090;DHT22;9677;50.656;13.064;2022-08-30T13:49:24;29.10;44.50
19090;DHT22;9677;50.656;13.064;2022-08-30T13:52:14;29.20;44.50
19090;DHT22;9677;50.656;13.064;2022-08-30T13:54:48;29.10;44.40
19090;DHT22;9677;50.656;13.064;2022-08-30T13:57:19;29.00;44.70
19090;DHT22;9677;50.656;13.064;2022-08-30T14:00:12;29.00;44.70
19090;DHT22;9677;50.656;13.064;2022-08-30T14:02:44;28.90;44.50
19090;DHT22;9677;50.656;13.064;2022-08-30T14:05:21;28.90;44.80
19090;DHT22;9677;50.656;13.064;2022-08-30T14:08:13;28.90;44.80
19090;DHT22;9677;50.656;13.064;2022-08-30T14:11:03;28.90;44.60
19090;DHT22;9677;50.656;13.064;2022-08-30T14:13:32;28.80;44.60
19090;DHT22;9677;50.656;13.064;2022-08-30T14:16:04;28.80;44.80
19090;DHT22;9677;50.656;13.064;2022-08-30T14:18:54;28.80;44.70
19090;DHT22;9677;50.656;13.064;2022-08-30T14:21:23;28.80;44.90
19090;DHT22;9677;50.656;13.064;2022-08-30T14:23:53;28.80;44.90
19090;DHT22;9677;50.656;13.064;2022-08-30T14:26:26;28.80;45.10
19090;DHT22;9677;50.656;13.064;2022-08-30T14:28:59;28.80;44.90
19090;DHT22;9677;50.656;13.064;2022-08-30T14:31:29;28.80;45.10
19090;DHT22;9677;50.656;13.064;2022-08-30T14:33:59;28.80;45.00
19090;DHT22;9677;50.656;13.064;2022-08-30T14:36:30;28.80;44.60
19090;DHT22;9677;50.656;13.064;2022-08-30T14:39:00;28.80;44.60
19090;DHT22;9677;50.656;13.064;2022-08-30T14:41:40;28.80;44.20
19090;DHT22;9677;50.656;13.064;2022-08-30T14:44:10;28.80;44.00
19090;DHT22;9677;50.656;13.064;2022-08-30T14:46:39;28.80;44.40
19090;DHT22;9677;50.656;13.064;2022-08-30T14:49:08;28.80;44.40
19090;DHT22;9677;50.656;13.064;2022-08-30T14:51:38;28.70;44.40
19090;DHT22;9677;50.656;13.064;2022-08-30T14:54:09;28.60;44.20
19090;DHT22;9677;50.656;13.064;2022-08-30T14:56:38;28.60;44.20
19090;DHT22;9677;50.656;13.064;2022-08-30T14:59:07;28.50;44.20
19090;DHT22;9677;50.656;13.064;2022-08-30T15:01:39;28.50;44.30
19090;DHT22;9677;50.656;13.064;2022-08-30T15:04:09;28.50;44.30
19090;DHT22;9677;50.656;13.064;2022-08-30T15:06:41;28.40;44.20
19090;DHT22;9677;50.656;13.064;2022-08-30T15:09:15;28.30;44.10
19090;DHT22;9677;50.656;13.064;2022-08-30T15:11:50;28.40;44.20
19090;DHT22;9677;50.656;13.064;2022-08-30T15:14:21;28.30;44.40
19090;DHT22;9677;50.656;13.064;2022-08-30T15:16:51;28.30;44.50
19090;DHT22;9677;50.656;13.064;2022-08-30T15:19:20;28.20;44.30
19090;DHT22;9677;50.656;13.064;2022-08-30T15:21:49;28.20;44.50
19090;DHT22;9677;50.656;13.064;2022-08-30T15:24:22;28.20;44.60
19090;DHT22;9677;50.656;13.064;2022-08-30T15:26:56;28.10;44.60
19090;DHT22;9677;50.656;13.064;2022-08-30T15:29:25;28.10;44.60
19090;DHT22;9677;50.656;13.064;2022-08-30T15:31:57;28.10;44.60
19090;DHT22;9677;50.656;13.064;2022-08-30T15:34:31;28.00;44.50
19090;DHT22;9677;50.656;13.064;2022-08-30T15:37:00;28.00;44.60
19090;DHT22;9677;50.656;13.064;2022-08-30T15:39:31;28.10;44.70
19090;DHT22;9677;50.656;13.064;2022-08-30T15:41:59;27.90;44.50
19090;DHT22;9677;50.656;13.064;2022-08-30T15:44:28;27.90;44.50
19090;DHT22;9677;50.656;13.064;2022-08-30T15:46:57;27.90;44.60
19090;DHT22;9677;50.656;13.064;2022-08-30T15:49:27;27.80;44.50
19090;DHT22;9677;50.656;13.064;2022-08-30T15:51:59;27.80;44.50
19090;DHT22;9677;50.656;13.064;2022-08-30T15:54:28;27.80;44.40
19090;DHT22;9677;50.656;13.064;2022-08-30T15:56:58;27.70;45.20
19090;DHT22;9677;50.656;13.064;2022-08-30T15:59:28;27.70;44.50
19090;DHT22;9677;50.656;13.064;2022-08-30T16:01:58;27.70;44.60
19090;DHT22;9677;50.656;13.064;2022-08-30T16:04:27;27.60;44.40
19090;DHT22;9677;50.656;13.064;2022-08-30T16:06:55;27.60;44.40
19090;DHT22;9677;50.656;13.064;2022-08-30T16:09:24;27.60;44.40
19090;DHT22;9677;50.656;13.064;2022-08-30T16:12:00;27.50;44.50
19090;DHT22;9677;50.656;13.064;2022-08-30T16:14:30;27.50;44.60